Time;durP1;ratioP1;P1;durP2;ratioP2;P2;SDS_P1;SDS_P2;PMS_P1;PMS_P2;Temp;Humidity;BMP_temperature;BMP_pressure;BME280_temperature;BME280_humidity;BME280_pressure;Samples;Min_cycle;Max_cycle;Signal;HPM_P1;HPM_P2
2023/07/25 00:01:16;;;;;;;0.30;0.30;;;;;;;;;;5072852;28;20511;-75
2023/07/25 00:03:41;;;;;;;0.30;0.30;;;;;;;;;;5074164;28;20601;-74
2023/07/25 00:06:06;;;;;;;0.20;0.20;;;;;;;;;;5075422;28;20035;-75
2023/07/25 00:08:32;;;;;;;0.25;0.25;;;;;;;;;;5074966;28;20069;-74
2023/07/25 00:10:58;;;;;;;0.30;0.30;;;;;;;;;;5074923;28;20395;-74
2023/07/25 00:13:23;;;;;;;0.38;0.38;;;;;;;;;;5073558;28;20029;-73
2023/07/25 00:15:51;;;;;;;0.20;0.20;;;;;;;;;;5074931;28;20032;-76
2023/07/25 00:18:17;;;;;;;0.40;0.40;;;;;;;;;;5074953;28;20035;-75
2023/07/25 00:20:42;;;;;;;0.20;0.20;;;;;;;;;;5074719;28;20454;-75
2023/07/25 00:23:08;;;;;;;0.30;0.30;;;;;;;;;;5074745;28;20033;-75
2023/07/25 00:25:33;;;;;;;0.30;0.30;;;;;;;;;;5074545;28;20475;-76
2023/07/25 00:27:59;;;;;;;0.32;0.32;;;;;;;;;;5073329;28;20103;-77
2023/07/25 00:30:24;;;;;;;0.30;0.30;;;;;;;;;;5054670;28;20627;-76
2023/07/25 00:32:50;;;;;;;0.30;0.30;;;;;;;;;;5072631;28;20027;-76
2023/07/25 00:35:15;;;;;;;0.22;0.22;;;;;;;;;;5072463;28;20043;-75
2023/07/25 00:37:40;;;;;;;0.25;0.25;;;;;;;;;;5071870;28;20032;-75
2023/07/25 00:40:06;;;;;;;0.85;0.85;;;;;;;;;;5072468;28;20033;-76
2023/07/25 00:42:31;;;;;;;0.30;0.30;;;;;;;;;;5074385;28;20063;-75
2023/07/25 00:44:57;;;;;;;0.38;0.38;;;;;;;;;;5074500;28;20032;-76
2023/07/25 00:47:23;;;;;;;0.47;0.47;;;;;;;;;;5073671;28;20047;-75
2023/07/25 00:49:49;;;;;;;0.30;0.30;;;;;;;;;;5056263;28;20445;-74
2023/07/25 00:52:14;;;;;;;0.30;0.30;;;;;;;;;;5074120;28;20032;-75
2023/07/25 00:54:45;;;;;;;0.30;0.30;;;;;;;;;;5073819;28;20047;-75
2023/07/25 00:57:10;;;;;;;0.32;0.32;;;;;;;;;;5074198;28;20845;-75
2023/07/25 00:59:36;;;;;;;0.77;0.77;;;;;;;;;;5056215;28;20036;-74
2023/07/25 01:02:02;;;;;;;0.30;0.30;;;;;;;;;;5074322;28;20021;-74
2023/07/25 01:04:27;;;;;;;1.65;1.30;;;;;;;;;;5073484;28;20373;-74
2023/07/25 01:06:53;;;;;;;0.30;0.30;;;;;;;;;;5072426;28;20039;-76
2023/07/25 01:09:37;;;;;;;1.25;1.25;;;;;;;;;;5073840;28;20043;-75
2023/07/25 01:12:06;;;;;;;0.32;0.32;;;;;;;;;;5056092;28;20132;-75
2023/07/25 01:14:32;;;;;;;9.63;4.47;;;;;;;;;;5073842;28;20483;-74
2023/07/25 01:16:59;;;;;;;0.32;0.32;;;;;;;;;;5073805;28;20063;-74
2023/07/25 01:19:25;;;;;;;0.20;0.20;;;;;;;;;;5055726;28;20037;-74
2023/07/25 01:21:51;;;;;;;0.20;0.20;;;;;;;;;;5073710;28;20032;-74
2023/07/25 01:24:16;;;;;;;0.20;0.20;;;;;;;;;;5073479;28;20036;-75
2023/07/25 01:26:42;;;;;;;3.50;2.58;;;;;;;;;;5072660;28;20395;-74
2023/07/25 01:29:07;;;;;;;0.30;0.30;;;;;;;;;;5073760;28;20531;-74
2023/07/25 01:31:32;;;;;;;0.38;0.38;;;;;;;;;;5073628;28;20048;-73
2023/07/25 01:33:58;;;;;;;0.30;0.30;;;;;;;;;;5073002;28;20476;-74
2023/07/25 01:36:23;;;;;;;0.40;0.40;;;;;;;;;;5072354;28;20036;-73
2023/07/25 01:38:48;;;;;;;0.30;0.30;;;;;;;;;;5073352;28;20050;-75
2023/07/25 01:41:14;;;;;;;0.38;0.38;;;;;;;;;;5073517;28;20032;-74
2023/07/25 01:43:39;;;;;;;0.43;0.43;;;;;;;;;;5073417;28;20041;-73
2023/07/25 01:46:05;;;;;;;0.30;0.30;;;;;;;;;;5055612;28;20020;-73
2023/07/25 01:48:30;;;;;;;0.25;0.25;;;;;;;;;;5073443;28;20051;-74
2023/07/25 01:50:56;;;;;;;0.30;0.30;;;;;;;;;;5071995;28;20494;-75
2023/07/25 01:53:21;;;;;;;1.10;0.50;;;;;;;;;;5055110;28;20115;-76
2023/07/25 01:55:47;;;;;;;0.30;0.30;;;;;;;;;;5073178;28;20045;-76
2023/07/25 01:58:12;;;;;;;0.55;0.40;;;;;;;;;;5072215;28;20055;-74
2023/07/25 02:00:37;;;;;;;0.32;0.32;;;;;;;;;;5072412;28;20036;-73
2023/07/25 02:03:03;;;;;;;0.50;0.50;;;;;;;;;;5073252;28;20115;-75
2023/07/25 02:05:31;;;;;;;0.22;0.22;;;;;;;;;;5073135;28;20028;-75
2023/07/25 02:07:57;;;;;;;0.30;0.30;;;;;;;;;;5055149;28;20032;-75
2023/07/25 02:10:22;;;;;;;0.30;0.30;;;;;;;;;;5071699;28;20035;-74
2023/07/25 02:12:48;;;;;;;0.20;0.20;;;;;;;;;;5055790;28;20038;-74
2023/07/25 02:15:13;;;;;;;0.30;0.30;;;;;;;;;;5055109;28;20106;-74
2023/07/25 02:17:38;;;;;;;0.30;0.30;;;;;;;;;;5071776;28;20094;-74
2023/07/25 02:20:04;;;;;;;0.25;0.25;;;;;;;;;;5055134;28;20024;-74
2023/07/25 02:22:30;;;;;;;0.35;0.35;;;;;;;;;;5072920;28;20032;-73
2023/07/25 02:24:55;;;;;;;0.20;0.20;;;;;;;;;;5072761;28;20036;-74
2023/07/25 02:27:21;;;;;;;0.20;0.20;;;;;;;;;;5073325;28;20166;-74
2023/07/25 02:29:46;;;;;;;0.25;0.25;;;;;;;;;;5073159;28;20056;-73
2023/07/25 02:32:11;;;;;;;0.20;0.20;;;;;;;;;;5054968;28;20041;-74
2023/07/25 02:34:37;;;;;;;0.20;0.20;;;;;;;;;;5072742;28;20102;-74
2023/07/25 02:37:02;;;;;;;2.25;2.15;;;;;;;;;;5072814;28;20115;-73
2023/07/25 02:39:33;;;;;;;0.30;0.30;;;;;;;;;;5072324;28;20814;-73
2023/07/25 02:41:58;;;;;;;0.28;0.28;;;;;;;;;;5072660;28;20040;-74
2023/07/25 02:44:23;;;;;;;0.30;0.30;;;;;;;;;;5071187;28;20037;-74
2023/07/25 02:46:49;;;;;;;0.30;0.30;;;;;;;;;;5071729;28;20029;-76
2023/07/25 02:49:14;;;;;;;0.22;0.22;;;;;;;;;;5057330;28;20119;-75
2023/07/25 02:51:40;;;;;;;0.25;0.25;;;;;;;;;;5072490;28;20468;-75
2023/07/25 02:54:05;;;;;;;1.02;0.90;;;;;;;;;;5039347;28;20029;-76
2023/07/25 02:56:30;;;;;;;0.80;0.80;;;;;;;;;;5052302;28;20387;-75
2023/07/25 02:58:56;;;;;;;0.40;0.40;;;;;;;;;;5052600;28;20104;-75
2023/07/25 03:01:21;;;;;;;7.38;4.85;;;;;;;;;;5034722;28;20040;-74
2023/07/25 03:03:47;;;;;;;4.03;1.65;;;;;;;;;;5030037;28;20037;-76
2023/07/25 03:06:12;;;;;;;0.20;0.20;;;;;;;;;;5048850;28;20439;-75
2023/07/25 03:08:37;;;;;;;0.40;0.40;;;;;;;;;;5030390;28;20116;-75
2023/07/25 03:11:03;;;;;;;0.30;0.30;;;;;;;;;;5048184;28;20021;-74
2023/07/25 03:13:28;;;;;;;7.07;1.63;;;;;;;;;;5030444;28;20542;-75
2023/07/25 03:15:54;;;;;;;0.77;0.77;;;;;;;;;;5048428;28;20029;-75
2023/07/25 03:18:19;;;;;;;2.83;1.67;;;;;;;;;;5048324;28;20033;-75
2023/07/25 03:20:45;;;;;;;0.30;0.30;;;;;;;;;;5048520;28;20056;-75
2023/07/25 03:23:10;;;;;;;1.13;1.13;;;;;;;;;;5041965;28;20131;-75
2023/07/25 03:25:35;;;;;;;0.30;0.30;;;;;;;;;;5048411;28;20033;-75
2023/07/25 03:28:01;;;;;;;0.20;0.20;;;;;;;;;;5047167;28;20037;-76
2023/07/25 03:30:26;;;;;;;0.20;0.20;;;;;;;;;;5048241;28;20044;-78
2023/07/25 03:32:52;;;;;;;0.20;0.20;;;;;;;;;;5048474;28;20037;-76
2023/07/25 03:35:17;;;;;;;0.20;0.20;;;;;;;;;;5047540;28;20103;-76
2023/07/25 03:37:43;;;;;;;0.20;0.20;;;;;;;;;;5046428;28;20037;-78
2023/07/25 03:40:08;;;;;;;0.20;0.20;;;;;;;;;;5046748;28;20083;-75
2023/07/25 03:42:34;;;;;;;0.30;0.30;;;;;;;;;;5048047;28;20392;-76
2023/07/25 03:44:59;;;;;;;0.30;0.30;;;;;;;;;;5047575;28;20033;-77
2023/07/25 03:47:24;;;;;;;0.20;0.20;;;;;;;;;;5052535;28;20052;-76
2023/07/25 03:49:51;;;;;;;0.20;0.20;;;;;;;;;;5066259;28;20059;-77
2023/07/25 03:52:17;;;;;;;0.20;0.20;;;;;;;;;;5067846;28;20115;-76
2023/07/25 03:54:43;;;;;;;0.30;0.30;;;;;;;;;;5067635;28;20098;-77
2023/07/25 03:57:08;;;;;;;0.28;0.28;;;;;;;;;;5070308;28;20036;-76
2023/07/25 03:59:34;;;;;;;0.28;0.28;;;;;;;;;;5071126;28;20033;-76
2023/07/25 04:01:59;;;;;;;0.30;0.30;;;;;;;;;;5071189;28;20072;-75
2023/07/25 04:04:24;;;;;;;0.30;0.30;;;;;;;;;;5069973;28;20059;-73
2023/07/25 04:06:50;;;;;;;0.32;0.32;;;;;;;;;;5069712;28;20442;-73
2023/07/25 04:09:15;;;;;;;0.20;0.20;;;;;;;;;;5052508;28;20036;-74
2023/07/25 04:11:40;;;;;;;0.20;0.20;;;;;;;;;;5069664;28;20032;-74
2023/07/25 04:14:06;;;;;;;6.35;5.82;;;;;;;;;;5053193;28;20105;-74
2023/07/25 04:16:32;;;;;;;0.20;0.20;;;;;;;;;;5069744;28;20041;-74
2023/07/25 04:18:57;;;;;;;0.20;0.20;;;;;;;;;;5071201;28;20032;-76
2023/07/25 04:21:22;;;;;;;0.43;0.43;;;;;;;;;;5070596;28;20044;-75
2023/07/25 04:23:48;;;;;;;3.47;2.28;;;;;;;;;;5070792;28;20123;-76
2023/07/25 04:26:13;;;;;;;3.53;2.25;;;;;;;;;;5052455;28;20039;-75
2023/07/25 04:28:39;;;;;;;0.20;0.20;;;;;;;;;;5070561;28;20028;-75
2023/07/25 04:31:04;;;;;;;4.85;1.65;;;;;;;;;;5069211;28;20541;-75
2023/07/25 04:33:29;;;;;;;0.28;0.28;;;;;;;;;;5081083;28;20046;-77
2023/07/25 04:35:55;;;;;;;0.30;0.30;;;;;;;;;;5091011;28;20043;-77
2023/07/25 04:38:20;;;;;;;0.28;0.28;;;;;;;;;;5091578;28;20368;-74
2023/07/25 04:40:46;;;;;;;0.30;0.30;;;;;;;;;;5072649;28;20138;-75
2023/07/25 04:43:11;;;;;;;0.20;0.20;;;;;;;;;;5090748;28;20085;-75
2023/07/25 04:45:37;;;;;;;0.30;0.30;;;;;;;;;;5091111;28;20356;-75
2023/07/25 04:48:03;;;;;;;0.20;0.20;;;;;;;;;;5072497;28;20032;-74
2023/07/25 04:50:29;;;;;;;0.20;0.20;;;;;;;;;;5072917;28;20376;-75
2023/07/25 04:52:54;;;;;;;0.30;0.30;;;;;;;;;;5072751;28;20035;-74
2023/07/25 04:55:19;;;;;;;0.20;0.20;;;;;;;;;;5072298;28;20467;-74
2023/07/25 04:57:45;;;;;;;0.30;0.30;;;;;;;;;;5090631;28;20119;-74
2023/07/25 05:00:11;;;;;;;0.30;0.30;;;;;;;;;;5088733;28;20112;-74
2023/07/25 05:02:36;;;;;;;0.35;0.35;;;;;;;;;;5070659;28;20510;-74
2023/07/25 05:05:02;;;;;;;0.30;0.30;;;;;;;;;;5073940;28;20024;-77
2023/07/25 05:07:27;;;;;;;0.30;0.30;;;;;;;;;;5089243;28;20390;-77
2023/07/25 05:09:53;;;;;;;0.30;0.30;;;;;;;;;;5090309;28;20048;-76
2023/07/25 05:12:18;;;;;;;0.20;0.20;;;;;;;;;;5090431;28;20141;-75
2023/07/25 05:14:44;;;;;;;0.30;0.30;;;;;;;;;;5090366;28;20043;-75
2023/07/25 05:17:09;;;;;;;0.30;0.30;;;;;;;;;;5090039;28;20035;-75
2023/07/25 05:19:34;;;;;;;0.30;0.30;;;;;;;;;;5083837;28;20026;-76
2023/07/25 05:22:00;;;;;;;0.30;0.30;;;;;;;;;;5090250;28;20079;-75
2023/07/25 05:24:25;;;;;;;0.30;0.30;;;;;;;;;;5084639;28;20028;-74
2023/07/25 05:26:51;;;;;;;0.30;0.30;;;;;;;;;;5090150;28;20042;-75
2023/07/25 05:29:16;;;;;;;0.30;0.30;;;;;;;;;;5073539;28;20024;-78
2023/07/25 05:31:41;;;;;;;0.40;0.40;;;;;;;;;;5089766;28;20047;-74
2023/07/25 05:34:07;;;;;;;0.40;0.40;;;;;;;;;;5060823;28;20046;-73
2023/07/25 05:36:32;;;;;;;0.40;0.40;;;;;;;;;;5088679;28;20379;-76
2023/07/25 05:38:58;;;;;;;0.95;0.95;;;;;;;;;;5089760;28;20029;-76
2023/07/25 05:41:23;;;;;;;0.20;0.20;;;;;;;;;;5085549;28;20047;-75
2023/07/25 05:43:49;;;;;;;0.30;0.30;;;;;;;;;;5051567;28;20032;-76
2023/07/25 05:46:14;;;;;;;0.30;0.30;;;;;;;;;;5056322;28;20407;-76
2023/07/25 05:48:40;;;;;;;0.30;0.30;;;;;;;;;;5069172;28;20402;-76
2023/07/25 05:51:05;;;;;;;0.30;0.30;;;;;;;;;;5079310;28;20435;-75
2023/07/25 05:53:31;;;;;;;0.20;0.20;;;;;;;;;;5089152;28;20036;-75
2023/07/25 05:55:56;;;;;;;0.40;0.40;;;;;;;;;;5070952;28;20491;-74
2023/07/25 05:58:21;;;;;;;0.30;0.30;;;;;;;;;;5070288;28;20078;-76
2023/07/25 06:00:47;;;;;;;0.35;0.35;;;;;;;;;;5068727;28;20036;-76
2023/07/25 06:03:13;;;;;;;0.30;0.30;;;;;;;;;;5050972;28;20493;-75
2023/07/25 06:05:39;;;;;;;0.30;0.30;;;;;;;;;;5069016;28;20071;-76
2023/07/25 06:08:05;;;;;;;1.48;1.38;;;;;;;;;;5069421;28;20440;-75
2023/07/25 06:10:30;;;;;;;0.68;0.57;;;;;;;;;;5068601;28;20043;-76
2023/07/25 06:12:56;;;;;;;0.35;0.35;;;;;;;;;;5069248;28;20035;-75
2023/07/25 06:15:21;;;;;;;0.30;0.30;;;;;;;;;;5068074;28;20438;-75
2023/07/25 06:17:46;;;;;;;0.30;0.30;;;;;;;;;;5068748;28;20032;-74
2023/07/25 06:20:12;;;;;;;2.00;1.30;;;;;;;;;;5066161;28;20088;-76
2023/07/25 06:22:38;;;;;;;6.38;1.60;;;;;;;;;;5068846;28;20041;-74
2023/07/25 06:25:04;;;;;;;0.30;0.30;;;;;;;;;;5068899;28;20036;-74
2023/07/25 06:27:30;;;;;;;0.30;0.30;;;;;;;;;;5068622;28;20055;-74
2023/07/25 06:29:55;;;;;;;0.30;0.30;;;;;;;;;;5074554;28;20082;-76
2023/07/25 06:32:20;;;;;;;1.15;1.05;;;;;;;;;;5071233;28;20923;-75
2023/07/25 06:34:46;;;;;;;3.45;1.30;;;;;;;;;;5066485;28;20484;-76
2023/07/25 06:37:11;;;;;;;0.30;0.30;;;;;;;;;;5072446;28;20055;-76
2023/07/25 06:39:37;;;;;;;0.40;0.40;;;;;;;;;;5088674;28;20472;-76
2023/07/25 06:42:03;;;;;;;0.30;0.30;;;;;;;;;;5088409;28;20141;-78
2023/07/25 06:44:28;;;;;;;0.30;0.30;;;;;;;;;;5048352;28;20366;-78
2023/07/25 06:46:54;;;;;;;0.30;0.30;;;;;;;;;;5046648;28;20039;-77
2023/07/25 06:49:19;;;;;;;0.73;0.73;;;;;;;;;;5086190;28;20031;-77
2023/07/25 06:51:45;;;;;;;0.40;0.40;;;;;;;;;;5076874;28;20043;-80
2023/07/25 06:54:10;;;;;;;0.40;0.40;;;;;;;;;;5066373;28;20060;-77
2023/07/25 06:56:36;;;;;;;0.40;0.40;;;;;;;;;;5063375;28;20479;-77
2023/07/25 06:59:01;;;;;;;0.25;0.25;;;;;;;;;;5065543;28;20387;-77
2023/07/25 07:01:27;;;;;;;0.30;0.30;;;;;;;;;;5065629;28;20028;-71
2023/07/25 07:03:56;;;;;;;9.05;2.92;;;;;;;;;;5066080;28;20029;-69
2023/07/25 07:06:21;;;;;;;0.93;0.90;;;;;;;;;;5065930;28;20094;-71
2023/07/25 07:08:47;;;;;;;0.50;0.50;;;;;;;;;;5065424;28;20380;-70
2023/07/25 07:11:12;;;;;;;0.50;0.50;;;;;;;;;;5065152;28;20039;-70
2023/07/25 07:13:37;;;;;;;0.40;0.40;;;;;;;;;;5062953;28;20487;-71
2023/07/25 07:16:03;;;;;;;0.30;0.30;;;;;;;;;;5064638;28;20084;-69
2023/07/25 07:18:28;;;;;;;5.32;2.30;;;;;;;;;;5075231;28;20074;-70
2023/07/25 07:20:54;;;;;;;0.38;0.38;;;;;;;;;;5085773;28;20509;-70
2023/07/25 07:23:19;;;;;;;0.68;0.68;;;;;;;;;;5085729;28;20032;-69
2023/07/25 07:25:45;;;;;;;3.88;1.77;;;;;;;;;;5085671;28;20046;-70
2023/07/25 07:28:10;;;;;;;3.20;1.60;;;;;;;;;;5064717;28;20032;-69
2023/07/25 07:30:36;;;;;;;11.57;3.60;;;;;;;;;;5066108;28;20128;-71
2023/07/25 07:33:01;;;;;;;9.75;2.20;;;;;;;;;;5069026;28;20111;-69
2023/07/25 07:35:27;;;;;;;6.50;1.98;;;;;;;;;;5071128;28;20409;-69
2023/07/25 07:37:52;;;;;;;4.55;1.98;;;;;;;;;;5088452;28;20039;-67
2023/07/25 07:40:17;;;;;;;3.65;1.58;;;;;;;;;;5088625;28;20089;-69
2023/07/25 07:42:43;;;;;;;13.05;2.60;;;;;;;;;;5088265;28;20085;-70
2023/07/25 07:45:08;;;;;;;5.70;3.10;;;;;;;;;;5087734;28;20150;-69
2023/07/25 07:47:34;;;;;;;2.13;1.20;;;;;;;;;;5089443;28;20108;-68
2023/07/25 07:49:59;;;;;;;3.35;1.65;;;;;;;;;;5089197;28;20105;-72
2023/07/25 07:52:30;;;;;;;1.98;1.30;;;;;;;;;;5082130;28;20058;-75
2023/07/25 07:54:56;;;;;;;10.45;2.22;;;;;;;;;;5068293;28;20041;-73
2023/07/25 07:57:21;;;;;;;0.70;0.57;;;;;;;;;;5066511;28;20459;-74
2023/07/25 07:59:47;;;;;;;13.48;3.45;;;;;;;;;;5068325;28;20028;-75
2023/07/25 08:02:12;;;;;;;12.15;2.95;;;;;;;;;;5050938;28;20499;-71
2023/07/25 08:04:37;;;;;;;5.90;2.38;;;;;;;;;;5068692;28;20048;-71
2023/07/25 08:07:03;;;;;;;10.23;2.38;;;;;;;;;;5068062;28;20044;-68
2023/07/25 08:09:28;;;;;;;6.35;2.90;;;;;;;;;;5068677;28;20099;-69
2023/07/25 08:11:54;;;;;;;13.18;3.22;;;;;;;;;;5068463;28;20054;-69
2023/07/25 08:14:19;;;;;;;0.50;0.50;;;;;;;;;;5067282;28;20033;-69
2023/07/25 08:16:45;;;;;;;2.65;0.95;;;;;;;;;;5068651;28;20475;-69
2023/07/25 08:19:10;;;;;;;11.95;3.58;;;;;;;;;;5060301;28;20484;-70
2023/07/25 08:21:36;;;;;;;0.50;0.50;;;;;;;;;;5048333;28;20029;-68
2023/07/25 08:24:01;;;;;;;0.95;0.82;;;;;;;;;;5087142;28;20116;-70
2023/07/25 08:26:26;;;;;;;0.30;0.30;;;;;;;;;;5088492;28;20039;-70
2023/07/25 08:28:52;;;;;;;8.45;2.38;;;;;;;;;;5076807;28;20192;-70
2023/07/25 08:31:17;;;;;;;0.88;0.88;;;;;;;;;;5049564;28;20570;-69
2023/07/25 08:33:44;;;;;;;0.30;0.30;;;;;;;;;;5068330;28;20040;-73
2023/07/25 08:36:10;;;;;;;10.80;1.63;;;;;;;;;;5074771;28;20925;-78
2023/07/25 08:38:35;;;;;;;30.75;2.75;;;;;;;;;;5066449;28;20025;-77
2023/07/25 08:41:05;;;;;;;2.55;1.40;;;;;;;;;;5067574;28;20037;-77
2023/07/25 08:43:33;;;;;;;3.40;1.67;;;;;;;;;;5067965;28;20119;-77
2023/07/25 08:45:59;;;;;;;0.60;0.47;;;;;;;;;;5068540;28;20040;-75
2023/07/25 08:48:25;;;;;;;10.75;3.35;;;;;;;;;;5067675;28;20033;-75
2023/07/25 08:50:52;;;;;;;2.67;1.67;;;;;;;;;;5068020;28;20072;-78
2023/07/25 08:53:19;;;;;;;28.23;3.35;;;;;;;;;;5032131;28;21085;-76
2023/07/25 08:55:44;;;;;;;14.25;3.92;;;;;;;;;;5087641;28;20044;-79
2023/07/25 08:58:10;;;;;;;12.70;2.95;;;;;;;;;;5061193;28;20182;-72
2023/07/25 09:00:35;;;;;;;11.32;2.83;;;;;;;;;;5047668;28;20031;-72
2023/07/25 09:03:01;;;;;;;10.88;2.80;;;;;;;;;;5047490;28;20036;-73
2023/07/25 09:05:27;;;;;;;50.10;6.70;;;;;;;;;;5047537;28;20048;-76
2023/07/25 09:07:52;;;;;;;12.05;1.70;;;;;;;;;;5047516;28;20044;-75
2023/07/25 09:10:18;;;;;;;1.50;1.40;;;;;;;;;;5031406;28;20033;-74
2023/07/25 09:12:43;;;;;;;12.60;6.68;;;;;;;;;;5059898;28;20468;-74
2023/07/25 09:15:09;;;;;;;7.40;2.63;;;;;;;;;;5069269;28;20039;-75
2023/07/25 09:17:34;;;;;;;10.10;3.40;;;;;;;;;;5069586;28;20037;-74
2023/07/25 09:20:00;;;;;;;10.98;3.53;;;;;;;;;;5069746;28;20037;-74
2023/07/25 09:22:29;;;;;;;14.82;3.38;;;;;;;;;;5069719;28;20043;-78
2023/07/25 09:24:55;;;;;;;7.35;3.17;;;;;;;;;;5051531;28;20476;-75
2023/07/25 09:27:20;;;;;;;13.35;3.17;;;;;;;;;;5050843;28;20120;-74
2023/07/25 09:29:49;;;;;;;9.30;2.47;;;;;;;;;;5068521;28;20119;-74
2023/07/25 09:32:14;;;;;;;;;;;;;;;;;;5069455;28;20380;-75
2023/07/25 09:34:42;;;;;;;11.82;3.95;;;;;;;;;;5076671;28;19916;-73
2023/07/25 09:37:08;;;;;;;6.20;2.17;;;;;;;;;;5048974;28;20128;-74
2023/07/25 09:39:34;;;;;;;9.90;3.17;;;;;;;;;;5049271;28;20108;-74
2023/07/25 09:42:00;;;;;;;34.25;5.13;;;;;;;;;;5049397;28;20043;-75
2023/07/25 09:44:31;;;;;;;2.40;1.35;;;;;;;;;;5048491;28;20041;-74
2023/07/25 09:46:56;;;;;;;24.00;5.00;;;;;;;;;;5049346;28;20391;-75
2023/07/25 09:49:22;;;;;;;16.45;4.55;;;;;;;;;;5048746;28;20029;-74
2023/07/25 09:51:58;;;;;;;5.05;2.10;;;;;;;;;;5049248;28;20048;-74
2023/07/25 09:54:24;;;;;;;25.42;4.75;;;;;;;;;;5049137;28;20117;-73
2023/07/25 09:56:49;;;;;;;9.60;3.33;;;;;;;;;;5065528;28;20119;-74
2023/07/25 09:59:14;;;;;;;2.15;1.25;;;;;;;;;;5074063;28;20029;-74
2023/07/25 10:01:40;;;;;;;15.40;3.80;;;;;;;;;;5068760;28;20060;-74
2023/07/25 10:04:06;;;;;;;8.65;4.00;;;;;;;;;;5068757;28;20426;-74
2023/07/25 10:06:32;;;;;;;7.22;3.33;;;;;;;;;;5068571;28;20098;-72
2023/07/25 10:08:57;;;;;;;20.50;5.43;;;;;;;;;;5068445;28;20028;-75
2023/07/25 10:11:23;;;;;;;11.85;2.67;;;;;;;;;;5068580;28;20507;-73
2023/07/25 10:13:52;;;;;;;28.55;4.28;;;;;;;;;;5068347;28;20029;-77
2023/07/25 10:16:18;;;;;;;9.07;3.30;;;;;;;;;;5068693;28;20241;-73
2023/07/25 10:18:51;;;;;;;13.90;2.55;;;;;;;;;;5068522;28;20429;-73
2023/07/25 10:21:17;;;;;;;6.10;1.83;;;;;;;;;;5068449;28;20111;-74
2023/07/25 10:23:42;;;;;;;32.53;5.80;;;;;;;;;;5067682;28;20066;-74
2023/07/25 10:26:09;;;;;;;15.32;3.25;;;;;;;;;;5068609;28;20027;-75
2023/07/25 10:28:34;;;;;;;8.50;2.92;;;;;;;;;;5066140;28;20078;-74
2023/07/25 10:31:00;;;;;;;14.48;3.60;;;;;;;;;;5067549;28;20064;-75
2023/07/25 10:33:25;;;;;;;17.10;3.05;;;;;;;;;;5066821;28;20051;-77
2023/07/25 10:35:55;;;;;;;13.30;3.50;;;;;;;;;;5068727;28;20047;-78
2023/07/25 10:38:20;;;;;;;10.25;2.20;;;;;;;;;;5068161;28;20108;-77
2023/07/25 10:41:09;;;;;;;10.67;3.93;;;;;;;;;;5068228;28;20108;-75
2023/07/25 10:43:34;;;;;;;;;;;;;;;;;;5060666;28;20286;-75
2023/07/25 10:46:00;;;;;;;4.80;2.07;;;;;;;;;;5062120;28;19912;-74
2023/07/25 10:48:26;;;;;;;8.32;1.83;;;;;;;;;;5060149;28;20278;-74
2023/07/25 10:50:54;;;;;;;20.15;4.07;;;;;;;;;;5083860;28;20503;-76
2023/07/25 10:53:22;;;;;;;3.20;1.25;;;;;;;;;;5069385;28;20035;-76
2023/07/25 10:56:03;;;;;;;13.82;5.25;;;;;;;;;;5088046;28;20036;-75
2023/07/25 10:58:28;;;;;;;12.40;4.43;;;;;;;;;;5079829;28;20047;-75
2023/07/25 11:00:54;;;;;;;5.82;2.28;;;;;;;;;;5068136;28;20032;-76
2023/07/25 11:03:26;;;;;;;2.85;1.15;;;;;;;;;;5067601;28;20111;-75
2023/07/25 11:05:51;;;;;;;0.77;0.57;;;;;;;;;;5069097;28;20036;-76
2023/07/25 11:08:17;;;;;;;6.85;3.63;;;;;;;;;;5071444;28;20074;-75
2023/07/25 11:10:43;;;;;;;14.32;4.20;;;;;;;;;;5071640;28;20480;-75
2023/07/25 11:13:08;;;;;;;9.20;3.25;;;;;;;;;;5070981;28;20017;-75
2023/07/25 11:15:34;;;;;;;20.73;4.05;;;;;;;;;;5071181;28;20044;-76
2023/07/25 11:18:04;;;;;;;4.63;2.25;;;;;;;;;;5070954;28;20107;-82
2023/07/25 11:20:30;;;;;;;1.85;0.75;;;;;;;;;;5071192;28;20127;-76
2023/07/25 11:22:55;;;;;;;0.88;0.85;;;;;;;;;;5071408;28;20158;-76
2023/07/25 11:25:21;;;;;;;2.30;0.77;;;;;;;;;;5071251;28;20177;-75
2023/07/25 11:27:47;;;;;;;5.30;2.33;;;;;;;;;;5071066;28;20029;-76
2023/07/25 11:30:17;;;;;;;12.75;3.22;;;;;;;;;;5071117;28;20047;-82
2023/07/25 11:32:49;;;;;;;2.45;1.35;;;;;;;;;;5084185;28;20395;-76
2023/07/25 11:35:15;;;;;;;17.48;2.95;;;;;;;;;;5091190;28;20508;-77
2023/07/25 11:37:43;;;;;;;3.55;2.50;;;;;;;;;;5091380;28;20031;-76
2023/07/25 11:40:12;;;;;;;5.70;1.38;;;;;;;;;;5090963;28;20069;-76
2023/07/25 11:42:45;;;;;;;19.33;4.50;;;;;;;;;;5090438;28;20027;-81
2023/07/25 11:45:11;;;;;;;1.20;1.00;;;;;;;;;;5089597;28;20036;-76
2023/07/25 11:47:41;;;;;;;8.05;3.13;;;;;;;;;;5090700;28;20028;-82
2023/07/25 11:50:07;;;;;;;5.97;2.65;;;;;;;;;;5090699;28;20028;-76
2023/07/25 11:52:33;;;;;;;11.55;2.47;;;;;;;;;;5090869;28;20036;-76
2023/07/25 11:54:59;;;;;;;0.90;0.90;;;;;;;;;;5090885;28;20078;-77
2023/07/25 11:57:24;;;;;;;5.47;1.50;;;;;;;;;;5067352;28;20441;-76
2023/07/25 11:59:52;;;;;;;2.35;2.08;;;;;;;;;;5066260;28;20048;-78
2023/07/25 12:02:19;;;;;;;10.88;2.53;;;;;;;;;;5050254;28;20043;-77
2023/07/25 12:04:46;;;;;;;5.22;1.30;;;;;;;;;;5068652;28;20098;-77
2023/07/25 12:07:12;;;;;;;4.50;2.00;;;;;;;;;;5067958;28;20053;-77
2023/07/25 12:09:38;;;;;;;6.53;5.13;;;;;;;;;;5083402;28;20029;-77
2023/07/25 12:12:10;;;;;;;10.88;1.98;;;;;;;;;;5079009;28;20030;-77
2023/07/25 12:14:35;;;;;;;13.43;4.43;;;;;;;;;;5066527;28;20083;-77
2023/07/25 12:17:01;;;;;;;14.05;3.13;;;;;;;;;;5076565;28;20028;-81
2023/07/25 12:19:30;;;;;;;9.10;2.13;;;;;;;;;;5059177;28;20036;-77
2023/07/25 12:22:02;;;;;;;5.90;1.75;;;;;;;;;;5057965;28;20112;-76
2023/07/25 12:24:38;;;;;;;17.13;3.83;;;;;;;;;;5080891;28;20036;-78
2023/07/25 12:27:04;;;;;;;7.45;3.08;;;;;;;;;;5085442;28;20032;-78
2023/07/25 12:29:31;;;;;;;13.10;3.58;;;;;;;;;;5081370;28;20552;-70
2023/07/25 12:31:56;;;;;;;3.70;1.73;;;;;;;;;;5060281;28;20024;-70
2023/07/25 12:34:22;;;;;;;18.08;4.68;;;;;;;;;;5058781;28;20044;-69
2023/07/25 12:36:48;;;;;;;6.65;2.90;;;;;;;;;;5085747;28;20027;-69
2023/07/25 12:39:14;;;;;;;1.48;1.38;;;;;;;;;;5085609;28;20040;-71
2023/07/25 12:41:42;;;;;;;6.78;3.20;;;;;;;;;;5085461;28;20126;-70
2023/07/25 12:44:07;;;;;;;2.37;1.87;;;;;;;;;;5086438;28;20032;-70
2023/07/25 12:46:34;;;;;;;9.10;2.97;;;;;;;;;;5068659;28;20083;-75
2023/07/25 12:48:59;;;;;;;12.77;2.88;;;;;;;;;;5061239;28;20064;-75
2023/07/25 12:51:25;;;;;;;4.38;1.90;;;;;;;;;;5047811;28;20079;-77
2023/07/25 12:53:50;;;;;;;3.97;2.15;;;;;;;;;;5047993;28;20147;-74
2023/07/25 12:56:16;;;;;;;14.75;4.15;;;;;;;;;;5047383;28;20300;-75
2023/07/25 12:58:41;;;;;;;7.97;4.47;;;;;;;;;;5056725;28;20036;-75
2023/07/25 13:01:07;;;;;;;0.82;0.82;;;;;;;;;;5067570;28;20036;-75
2023/07/25 13:03:36;;;;;;;1.40;1.30;;;;;;;;;;5068018;28;20098;-74
2023/07/25 13:06:01;;;;;;;7.53;2.03;;;;;;;;;;5067372;28;20491;-76
2023/07/25 13:08:27;;;;;;;1.52;1.30;;;;;;;;;;5073705;28;20029;-75
2023/07/25 13:10:52;;;;;;;2.53;1.65;;;;;;;;;;5047857;28;20051;-77
2023/07/25 13:13:18;;;;;;;3.58;1.60;;;;;;;;;;5066726;28;20039;-76
2023/07/25 13:15:43;;;;;;;4.47;1.58;;;;;;;;;;5066576;28;20444;-77
2023/07/25 13:18:09;;;;;;;7.28;1.90;;;;;;;;;;5067947;28;20032;-74
2023/07/25 13:20:34;;;;;;;11.15;3.10;;;;;;;;;;5060320;28;20040;-76
2023/07/25 13:23:00;;;;;;;5.88;1.67;;;;;;;;;;5071605;28;20100;-76
2023/07/25 13:25:25;;;;;;;1.40;1.30;;;;;;;;;;5087286;28;20490;-76
2023/07/25 13:27:51;;;;;;;5.03;1.85;;;;;;;;;;5083836;28;20035;-75
2023/07/25 13:30:16;;;;;;;7.32;1.23;;;;;;;;;;5065678;28;20037;-74
2023/07/25 13:32:41;;;;;;;6.18;2.70;;;;;;;;;;5077764;28;20039;-75
2023/07/25 13:35:07;;;;;;;1.75;1.13;;;;;;;;;;5086682;28;20024;-75
2023/07/25 13:37:33;;;;;;;2.92;1.75;;;;;;;;;;5065095;28;20059;-76
2023/07/25 13:39:58;;;;;;;10.88;3.65;;;;;;;;;;5047681;28;20040;-76
2023/07/25 13:42:24;;;;;;;2.05;1.27;;;;;;;;;;5066888;28;20487;-74
2023/07/25 13:44:50;;;;;;;3.35;1.58;;;;;;;;;;5069647;28;20558;-76
2023/07/25 13:47:16;;;;;;;3.40;1.70;;;;;;;;;;5058883;28;20029;-75
2023/07/25 13:49:41;;;;;;;2.45;1.85;;;;;;;;;;5045927;28;20339;-76
2023/07/25 13:52:07;;;;;;;15.55;3.80;;;;;;;;;;5072731;28;20039;-76
2023/07/25 13:54:33;;;;;;;1.83;1.23;;;;;;;;;;5055857;28;20044;-76
2023/07/25 13:56:59;;;;;;;3.10;1.42;;;;;;;;;;5076587;28;20040;-75
2023/07/25 13:59:24;;;;;;;1.05;0.70;;;;;;;;;;5070438;28;20044;-75
2023/07/25 14:01:49;;;;;;;6.85;1.75;;;;;;;;;;5066946;28;20083;-77
2023/07/25 14:04:15;;;;;;;1.90;1.15;;;;;;;;;;5066122;28;20036;-75
2023/07/25 14:06:40;;;;;;;2.00;1.00;;;;;;;;;;5066528;28;20063;-76
2023/07/25 14:09:05;;;;;;;2.20;1.13;;;;;;;;;;5066840;28;20075;-77
2023/07/25 14:11:31;;;;;;;0.68;0.68;;;;;;;;;;5065290;28;20029;-76
2023/07/25 14:13:56;;;;;;;3.00;1.85;;;;;;;;;;5066281;28;20086;-79
2023/07/25 14:16:22;;;;;;;14.00;2.75;;;;;;;;;;5066997;28;20115;-75
2023/07/25 14:18:48;;;;;;;10.68;1.52;;;;;;;;;;5048798;28;20105;-76
2023/07/25 14:21:14;;;;;;;8.50;3.42;;;;;;;;;;5062852;28;20041;-76
2023/07/25 14:23:39;;;;;;;0.90;0.88;;;;;;;;;;5066332;28;20421;-76
2023/07/25 14:26:04;;;;;;;1.88;1.50;;;;;;;;;;5058042;28;20124;-76
2023/07/25 14:28:30;;;;;;;14.50;3.38;;;;;;;;;;5056215;28;20055;-76
2023/07/25 14:30:55;;;;;;;4.00;2.00;;;;;;;;;;5081722;28;20408;-77
2023/07/25 14:33:21;;;;;;;0.35;0.35;;;;;;;;;;5064262;28;20028;-81